sensor_id;sensor_type;location;lat;lon;timestamp;pressure;altitude;pressure_sealevel;temperature;humidity
10587;BME280;5341;47.606;7.576;2023-06-04T00:02:21;98614.50;;;26.05;35.99
10587;BME280;5341;47.606;7.576;2023-06-04T00:04:48;98606.84;;;26.02;35.90
10587;BME280;5341;47.606;7.576;2023-06-04T00:07:16;98620.03;;;25.99;35.99
10587;BME280;5341;47.606;7.576;2023-06-04T00:09:45;98617.03;;;25.96;36.01
10587;BME280;5341;47.606;7.576;2023-06-04T00:12:13;98617.34;;;25.94;36.12
10587;BME280;5341;47.606;7.576;2023-06-04T00:14:41;98609.66;;;25.91;35.93
10587;BME280;5341;47.606;7.576;2023-06-04T00:17:09;98615.44;;;25.90;35.98
10587;BME280;5341;47.606;7.576;2023-06-04T00:19:40;98617.94;;;25.86;35.93
10587;BME280;5341;47.606;7.576;2023-06-04T00:22:08;98613.03;;;25.83;35.91
10587;BME280;5341;47.606;7.576;2023-06-04T00:24:37;98611.69;;;25.81;35.97
10587;BME280;5341;47.606;7.576;2023-06-04T00:27:06;98608.69;;;25.77;36.09
10587;BME280;5341;47.606;7.576;2023-06-04T00:29:34;98608.97;;;25.76;35.98
10587;BME280;5341;47.606;7.576;2023-06-04T00:32:01;98609.25;;;25.74;36.06
10587;BME280;5341;47.606;7.576;2023-06-04T00:34:29;98607.91;;;25.72;36.07
10587;BME280;5341;47.606;7.576;2023-06-04T00:36:57;98605.72;;;25.68;36.20
10587;BME280;5341;47.606;7.576;2023-06-04T00:39:27;98606.25;;;25.65;36.31
10587;BME280;5341;47.606;7.576;2023-06-04T00:41:55;98606.56;;;25.64;36.11
10587;BME280;5341;47.606;7.576;2023-06-04T00:44:22;98606.84;;;25.62;36.38
10587;BME280;5341;47.606;7.576;2023-06-04T00:46:51;98606.59;;;25.59;36.26
10587;BME280;5341;47.606;7.576;2023-06-04T00:49:19;98607.69;;;25.58;36.11
10587;BME280;5341;47.606;7.576;2023-06-04T00:51:48;98605.50;;;25.55;36.35
10587;BME280;5341;47.606;7.576;2023-06-04T00:54:18;98604.97;;;25.53;36.23
10587;BME280;5341;47.606;7.576;2023-06-04T00:56:47;98611.03;;;25.50;36.29
10587;BME280;5341;47.606;7.576;2023-06-04T00:59:15;98610.50;;;25.48;36.43
10587;BME280;5341;47.606;7.576;2023-06-04T01:01:49;98619.00;;;25.46;36.40
10587;BME280;5341;47.606;7.576;2023-06-04T01:04:23;98616.81;;;25.43;36.54
10587;BME280;5341;47.606;7.576;2023-06-04T01:06:56;98610.78;;;25.41;36.59
10587;BME280;5341;47.606;7.576;2023-06-04T01:09:26;98610.53;;;25.37;36.53
10587;BME280;5341;47.606;7.576;2023-06-04T01:11:54;98615.50;;;25.35;36.46
10587;BME280;5341;47.606;7.576;2023-06-04T01:14:24;98610.59;;;25.32;36.54
10587;BME280;5341;47.606;7.576;2023-06-04T01:16:55;98619.34;;;25.29;36.55
10587;BME280;5341;47.606;7.576;2023-06-04T01:19:42;98616.06;;;25.27;36.64
10587;BME280;5341;47.606;7.576;2023-06-04T01:22:25;98623.75;;;25.25;36.63
10587;BME280;5341;47.606;7.576;2023-06-04T01:25:02;98619.66;;;25.23;36.53
10587;BME280;5341;47.606;7.576;2023-06-04T01:27:30;98612.00;;;25.20;36.59
10587;BME280;5341;47.606;7.576;2023-06-04T01:29:58;98619.66;;;25.18;36.66
10587;BME280;5341;47.606;7.576;2023-06-04T01:32:27;98624.63;;;25.16;36.71
10587;BME280;5341;47.606;7.576;2023-06-04T01:34:54;98617.78;;;25.13;36.67
10587;BME280;5341;47.606;7.576;2023-06-04T01:37:22;98624.66;;;25.10;36.69
10587;BME280;5341;47.606;7.576;2023-06-04T01:39:49;98624.13;;;25.08;36.64
10587;BME280;5341;47.606;7.576;2023-06-04T01:42:18;98624.38;;;25.07;36.62
10587;BME280;5341;47.606;7.576;2023-06-04T01:44:46;98626.56;;;25.05;36.72
10587;BME280;5341;47.606;7.576;2023-06-04T01:47:13;98632.59;;;25.02;36.71
10587;BME280;5341;47.606;7.576;2023-06-04T01:49:41;98630.13;;;25.00;36.71
10587;BME280;5341;47.606;7.576;2023-06-04T01:52:08;98627.97;;;24.97;36.65
10587;BME280;5341;47.606;7.576;2023-06-04T01:54:36;98630.97;;;24.96;36.61
10587;BME280;5341;47.606;7.576;2023-06-04T01:57:05;98633.97;;;24.94;36.63
10587;BME280;5341;47.606;7.576;2023-06-04T01:59:35;98629.06;;;24.91;36.78
10587;BME280;5341;47.606;7.576;2023-06-04T02:02:02;98631.25;;;24.89;36.75
10587;BME280;5341;47.606;7.576;2023-06-04T02:04:30;98634.28;;;24.88;36.77
10587;BME280;5341;47.606;7.576;2023-06-04T02:06:58;98626.34;;;24.86;36.70
10587;BME280;5341;47.606;7.576;2023-06-04T02:09:26;98635.94;;;24.83;36.72
10587;BME280;5341;47.606;7.576;2023-06-04T02:11:53;98636.19;;;24.82;36.65
10587;BME280;5341;47.606;7.576;2023-06-04T02:14:21;98634.00;;;24.79;36.64
10587;BME280;5341;47.606;7.576;2023-06-04T02:16:50;98632.66;;;24.76;36.75
10587;BME280;5341;47.606;7.576;2023-06-04T02:19:23;98637.59;;;24.74;36.72
10587;BME280;5341;47.606;7.576;2023-06-04T02:21:51;98637.06;;;24.72;36.54
10587;BME280;5341;47.606;7.576;2023-06-04T02:24:19;98649.34;;;24.70;36.78
10587;BME280;5341;47.606;7.576;2023-06-04T02:26:47;98633.22;;;24.68;36.80
10587;BME280;5341;47.606;7.576;2023-06-04T02:29:14;98634.59;;;24.66;36.65
10587;BME280;5341;47.606;7.576;2023-06-04T02:31:42;98639.53;;;24.64;36.62
10587;BME280;5341;47.606;7.576;2023-06-04T02:34:11;98643.66;;;24.61;36.64
10587;BME280;5341;47.606;7.576;2023-06-04T02:36:38;98641.44;;;24.58;36.71
10587;BME280;5341;47.606;7.576;2023-06-04T02:39:05;98647.19;;;24.57;36.65
10587;BME280;5341;47.606;7.576;2023-06-04T02:41:33;98644.19;;;24.53;36.68
10587;BME280;5341;47.606;7.576;2023-06-04T02:44:01;98646.41;;;24.51;36.67
10587;BME280;5341;47.606;7.576;2023-06-04T02:46:28;98649.41;;;24.49;36.62
10587;BME280;5341;47.606;7.576;2023-06-04T02:48:55;98645.56;;;24.45;36.67
10587;BME280;5341;47.606;7.576;2023-06-04T02:51:24;98654.88;;;24.44;36.74
10587;BME280;5341;47.606;7.576;2023-06-04T02:53:52;98653.50;;;24.42;36.60
10587;BME280;5341;47.606;7.576;2023-06-04T02:56:20;98649.41;;;24.39;36.60
10587;BME280;5341;47.606;7.576;2023-06-04T02:58:49;98657.06;;;24.37;36.55
10587;BME280;5341;47.606;7.576;2023-06-04T03:01:18;98653.81;;;24.35;36.67
10587;BME280;5341;47.606;7.576;2023-06-04T03:03:47;98661.44;;;24.33;36.54
10587;BME280;5341;47.606;7.576;2023-06-04T03:06:16;98663.63;;;24.31;36.59
10587;BME280;5341;47.606;7.576;2023-06-04T03:08:46;98656.75;;;24.29;36.59
10587;BME280;5341;47.606;7.576;2023-06-04T03:11:14;98648.84;;;24.27;36.63
10587;BME280;5341;47.606;7.576;2023-06-04T03:13:41;98652.94;;;24.24;36.52
10587;BME280;5341;47.606;7.576;2023-06-04T03:16:09;98657.84;;;24.22;36.63
10587;BME280;5341;47.606;7.576;2023-06-04T03:18:36;98667.13;;;24.21;36.66
10587;BME280;5341;47.606;7.576;2023-06-04T03:21:05;98661.13;;;24.19;36.60
10587;BME280;5341;47.606;7.576;2023-06-04T03:23:33;98666.88;;;24.18;36.67
10587;BME280;5341;47.606;7.576;2023-06-04T03:26:06;98677.25;;;24.16;36.72
10587;BME280;5341;47.606;7.576;2023-06-04T03:28:37;98678.63;;;24.13;36.67
10587;BME280;5341;47.606;7.576;2023-06-04T03:31:07;98687.09;;;24.12;36.66
10587;BME280;5341;47.606;7.576;2023-06-04T03:33:34;98683.81;;;24.10;36.71
10587;BME280;5341;47.606;7.576;2023-06-04T03:36:02;98678.63;;;24.08;36.71
10587;BME280;5341;47.606;7.576;2023-06-04T03:38:29;98678.88;;;24.07;36.78
10587;BME280;5341;47.606;7.576;2023-06-04T03:40:58;98676.72;;;24.04;36.89
10587;BME280;5341;47.606;7.576;2023-06-04T03:43:27;98683.25;;;24.03;36.76
10587;BME280;5341;47.606;7.576;2023-06-04T03:45:59;98685.44;;;24.01;36.80
10587;BME280;5341;47.606;7.576;2023-06-04T03:48:26;98685.72;;;23.99;36.79
10587;BME280;5341;47.606;7.576;2023-06-04T03:50:54;98685.16;;;23.97;36.79
10587;BME280;5341;47.606;7.576;2023-06-04T03:53:21;98684.63;;;23.95;36.87
10587;BME280;5341;47.606;7.576;2023-06-04T03:55:50;98692.25;;;23.93;36.84
10587;BME280;5341;47.606;7.576;2023-06-04T03:58:17;98687.06;;;23.91;36.75
10587;BME280;5341;47.606;7.576;2023-06-04T04:00:51;98697.19;;;23.91;36.90
10587;BME280;5341;47.606;7.576;2023-06-04T04:03:18;98702.91;;;23.89;36.83
10587;BME280;5341;47.606;7.576;2023-06-04T04:05:47;98708.66;;;23.88;36.87
10587;BME280;5341;47.606;7.576;2023-06-04T04:08:16;98706.16;;;23.86;36.81
10587;BME280;5341;47.606;7.576;2023-06-04T04:10:44;98703.72;;;23.85;36.82
10587;BME280;5341;47.606;7.576;2023-06-04T04:13:13;98717.38;;;23.85;37.00
10587;BME280;5341;47.606;7.576;2023-06-04T04:15:41;98712.19;;;23.83;36.87
10587;BME280;5341;47.606;7.576;2023-06-04T04:18:10;98713.25;;;23.82;36.82
10587;BME280;5341;47.606;7.576;2023-06-04T04:20:38;98709.72;;;23.82;36.72
10587;BME280;5341;47.606;7.576;2023-06-04T04:23:09;98713.53;;;23.81;36.79
10587;BME280;5341;47.606;7.576;2023-06-04T04:25:39;98717.09;;;23.81;36.95
10587;BME280;5341;47.606;7.576;2023-06-04T04:28:07;98708.06;;;23.81;36.90
10587;BME280;5341;47.606;7.576;2023-06-04T04:30:36;98712.72;;;23.80;36.80
10587;BME280;5341;47.606;7.576;2023-06-04T04:33:07;98710.25;;;23.79;36.73
10587;BME280;5341;47.606;7.576;2023-06-04T04:35:44;98716.53;;;23.79;36.72
10587;BME280;5341;47.606;7.576;2023-06-04T04:38:16;98720.38;;;23.78;36.78
10587;BME280;5341;47.606;7.576;2023-06-04T04:40:50;98716.00;;;23.77;36.78
10587;BME280;5341;47.606;7.576;2023-06-04T04:43:28;98717.63;;;23.78;36.79
10587;BME280;5341;47.606;7.576;2023-06-04T04:45:57;98717.09;;;23.76;36.71
10587;BME280;5341;47.606;7.576;2023-06-04T04:48:24;98719.81;;;23.76;36.75
10587;BME280;5341;47.606;7.576;2023-06-04T04:50:54;98723.66;;;23.75;36.78
10587;BME280;5341;47.606;7.576;2023-06-04T04:53:21;98723.66;;;23.75;36.94
10587;BME280;5341;47.606;7.576;2023-06-04T04:55:49;98727.19;;;23.76;36.91
10587;BME280;5341;47.606;7.576;2023-06-04T04:58:17;98729.09;;;23.75;36.76
10587;BME280;5341;47.606;7.576;2023-06-04T05:00:44;98727.72;;;23.73;36.79
10587;BME280;5341;47.606;7.576;2023-06-04T05:03:14;98724.97;;;23.73;36.82
10587;BME280;5341;47.606;7.576;2023-06-04T05:05:42;98728.81;;;23.72;36.71
10587;BME280;5341;47.606;7.576;2023-06-04T05:08:13;98728.53;;;23.73;36.87
10587;BME280;5341;47.606;7.576;2023-06-04T05:10:42;98729.63;;;23.72;36.68
10587;BME280;5341;47.606;7.576;2023-06-04T05:13:10;98726.06;;;23.72;36.82
10587;BME280;5341;47.606;7.576;2023-06-04T05:15:46;98727.16;;;23.71;36.88
10587;BME280;5341;47.606;7.576;2023-06-04T05:18:19;98732.63;;;23.71;36.65
10587;BME280;5341;47.606;7.576;2023-06-04T05:20:49;98731.81;;;23.70;36.66
10587;BME280;5341;47.606;7.576;2023-06-04T05:23:19;98743.53;;;23.71;36.72
10587;BME280;5341;47.606;7.576;2023-06-04T05:25:48;98736.19;;;23.71;36.71
10587;BME280;5341;47.606;7.576;2023-06-04T05:28:18;98733.72;;;23.70;36.65
10587;BME280;5341;47.606;7.576;2023-06-04T05:30:46;98743.53;;;23.71;36.70
10587;BME280;5341;47.606;7.576;2023-06-04T05:33:15;98732.63;;;23.71;36.72
10587;BME280;5341;47.606;7.576;2023-06-04T05:35:50;98745.19;;;23.72;36.59
10587;BME280;5341;47.606;7.576;2023-06-04T05:38:21;98747.09;;;23.71;36.54
10587;BME280;5341;47.606;7.576;2023-06-04T05:40:53;98752.28;;;23.73;36.70
10587;BME280;5341;47.606;7.576;2023-06-04T05:43:22;98750.13;;;23.75;36.62
10587;BME280;5341;47.606;7.576;2023-06-04T05:45:50;98761.59;;;23.77;36.66
10587;BME280;5341;47.606;7.576;2023-06-04T05:48:18;98754.22;;;23.77;36.67
10587;BME280;5341;47.606;7.576;2023-06-04T05:50:46;98747.41;;;23.80;36.50
10587;BME280;5341;47.606;7.576;2023-06-04T05:53:15;98742.50;;;23.82;36.65
10587;BME280;5341;47.606;7.576;2023-06-04T05:55:44;98743.03;;;23.84;36.53
10587;BME280;5341;47.606;7.576;2023-06-04T05:58:12;98749.03;;;23.86;36.67
10587;BME280;5341;47.606;7.576;2023-06-04T06:00:39;98744.97;;;23.88;36.46
10587;BME280;5341;47.606;7.576;2023-06-04T06:03:07;98754.53;;;23.91;36.70
10587;BME280;5341;47.606;7.576;2023-06-04T06:05:41;98754.81;;;23.94;36.56
10587;BME280;5341;47.606;7.576;2023-06-04T06:08:09;98748.81;;;23.97;36.61
10587;BME280;5341;47.606;7.576;2023-06-04T06:10:36;98749.94;;;24.02;36.50
10587;BME280;5341;47.606;7.576;2023-06-04T06:13:05;98754.03;;;24.04;36.61
10587;BME280;5341;47.606;7.576;2023-06-04T06:15:33;98751.28;;;24.09;36.85
10587;BME280;5341;47.606;7.576;2023-06-04T06:18:01;98744.22;;;24.13;36.68
10587;BME280;5341;47.606;7.576;2023-06-04T06:20:28;98749.66;;;24.18;36.88
10587;BME280;5341;47.606;7.576;2023-06-04T06:22:56;98747.78;;;24.24;36.75
10587;BME280;5341;47.606;7.576;2023-06-04T06:25:24;98754.34;;;24.28;36.66
10587;BME280;5341;47.606;7.576;2023-06-04T06:27:58;98754.34;;;24.33;36.89
10587;BME280;5341;47.606;7.576;2023-06-04T06:30:28;98766.97;;;24.39;36.86
10587;BME280;5341;47.606;7.576;2023-06-04T06:32:56;98756.84;;;24.45;36.86
10587;BME280;5341;47.606;7.576;2023-06-04T06:35:23;98765.88;;;24.50;36.76
10587;BME280;5341;47.606;7.576;2023-06-04T06:37:51;98770.25;;;24.57;36.91
10587;BME280;5341;47.606;7.576;2023-06-04T06:40:19;98772.16;;;24.61;36.75
10587;BME280;5341;47.606;7.576;2023-06-04T06:42:48;98768.31;;;24.67;36.88
10587;BME280;5341;47.606;7.576;2023-06-04T06:45:17;98769.97;;;24.73;36.94
10587;BME280;5341;47.606;7.576;2023-06-04T06:47:47;98759.84;;;24.79;37.07
10587;BME280;5341;47.606;7.576;2023-06-04T06:50:14;98762.31;;;24.86;36.84
10587;BME280;5341;47.606;7.576;2023-06-04T06:52:42;98772.97;;;24.92;37.12
10587;BME280;5341;47.606;7.576;2023-06-04T06:55:09;98764.75;;;24.97;37.24
10587;BME280;5341;47.606;7.576;2023-06-04T06:57:37;98769.97;;;25.04;37.27
10587;BME280;5341;47.606;7.576;2023-06-04T07:00:05;98769.69;;;25.10;37.34
10587;BME280;5341;47.606;7.576;2023-06-04T07:02:33;98766.66;;;25.17;37.18
10587;BME280;5341;47.606;7.576;2023-06-04T07:05:03;98766.66;;;25.22;36.74
10587;BME280;5341;47.606;7.576;2023-06-04T07:07:31;98767.44;;;25.28;37.01
10587;BME280;5341;47.606;7.576;2023-06-04T07:09:58;98778.41;;;25.33;36.82
10587;BME280;5341;47.606;7.576;2023-06-04T07:12:26;98768.53;;;25.37;36.66
10587;BME280;5341;47.606;7.576;2023-06-04T07:14:53;98764.66;;;25.43;36.50
10587;BME280;5341;47.606;7.576;2023-06-04T07:17:21;98767.13;;;25.50;36.81
10587;BME280;5341;47.606;7.576;2023-06-04T07:19:49;98767.66;;;25.52;36.51
10587;BME280;5341;47.606;7.576;2023-06-04T07:22:18;98765.44;;;25.54;36.35
10587;BME280;5341;47.606;7.576;2023-06-04T07:24:45;98769.00;;;25.54;36.50
10587;BME280;5341;47.606;7.576;2023-06-04T07:27:13;98765.97;;;25.56;36.38
10587;BME280;5341;47.606;7.576;2023-06-04T07:29:43;98768.47;;;25.57;36.61
10587;BME280;5341;47.606;7.576;2023-06-04T07:32:11;98773.13;;;25.57;36.23
10587;BME280;5341;47.606;7.576;2023-06-04T07:34:39;98770.63;;;25.60;36.67
10587;BME280;5341;47.606;7.576;2023-06-04T07:37:07;98774.97;;;25.66;36.38
10587;BME280;5341;47.606;7.576;2023-06-04T07:39:36;98776.88;;;25.76;36.88
10587;BME280;5341;47.606;7.576;2023-06-04T07:42:04;98777.09;;;25.90;36.68
10587;BME280;5341;47.606;7.576;2023-06-04T07:44:33;98783.34;;;26.00;36.26
10587;BME280;5341;47.606;7.576;2023-06-04T07:47:00;98776.75;;;26.07;36.42
10587;BME280;5341;47.606;7.576;2023-06-04T07:49:28;98770.41;;;26.11;36.28
10587;BME280;5341;47.606;7.576;2023-06-04T07:51:55;98765.97;;;26.15;36.33
10587;BME280;5341;47.606;7.576;2023-06-04T07:54:23;98764.03;;;26.21;36.33
10587;BME280;5341;47.606;7.576;2023-06-04T07:56:52;98761.25;;;26.31;36.35
10587;BME280;5341;47.606;7.576;2023-06-04T07:59:22;98762.25;;;26.45;36.63
10587;BME280;5341;47.606;7.576;2023-06-04T08:01:50;98770.38;;;26.61;36.30
10587;BME280;5341;47.606;7.576;2023-06-04T08:04:18;98778.75;;;26.74;35.99
10587;BME280;5341;47.606;7.576;2023-06-04T08:06:45;98776.44;;;26.86;36.06
10587;BME280;5341;47.606;7.576;2023-06-04T08:09:12;98774.19;;;26.94;36.52
10587;BME280;5341;47.606;7.576;2023-06-04T08:11:41;98774.94;;;26.99;35.79
10587;BME280;5341;47.606;7.576;2023-06-04T08:14:11;98777.09;;;27.07;36.21
10587;BME280;5341;47.606;7.576;2023-06-04T08:16:39;98779.47;;;27.19;35.86
10587;BME280;5341;47.606;7.576;2023-06-04T08:19:06;98776.66;;;27.24;35.74
10587;BME280;5341;47.606;7.576;2023-06-04T08:21:34;98769.53;;;27.23;35.90
10587;BME280;5341;47.606;7.576;2023-06-04T08:24:01;98769.00;;;27.21;36.13
10587;BME280;5341;47.606;7.576;2023-06-04T08:26:29;98766.56;;;27.20;36.54
10587;BME280;5341;47.606;7.576;2023-06-04T08:28:56;98771.16;;;27.24;36.57
10587;BME280;5341;47.606;7.576;2023-06-04T08:31:25;98765.66;;;27.24;36.10
10587;BME280;5341;47.606;7.576;2023-06-04T08:33:53;98768.72;;;27.23;36.30
10587;BME280;5341;47.606;7.576;2023-06-04T08:36:20;98763.22;;;27.23;36.16
10587;BME280;5341;47.606;7.576;2023-06-04T08:38:48;98763.50;;;27.21;36.54
10587;BME280;5341;47.606;7.576;2023-06-04T08:41:24;98772.28;;;27.23;36.30
10587;BME280;5341;47.606;7.576;2023-06-04T08:43:55;98771.13;;;27.29;36.08
10587;BME280;5341;47.606;7.576;2023-06-04T08:46:25;98767.72;;;27.37;36.21
10587;BME280;5341;47.606;7.576;2023-06-04T08:48:54;98773.41;;;27.46;36.04
10587;BME280;5341;47.606;7.576;2023-06-04T08:51:23;98762.81;;;27.58;36.15
10587;BME280;5341;47.606;7.576;2023-06-04T08:53:50;98767.09;;;27.69;36.07
10587;BME280;5341;47.606;7.576;2023-06-04T08:56:19;98769.44;;;27.81;36.15
10587;BME280;5341;47.606;7.576;2023-06-04T08:58:48;98762.47;;;27.89;35.76
10587;BME280;5341;47.606;7.576;2023-06-04T09:01:16;98771.16;;;27.96;35.58
10587;BME280;5341;47.606;7.576;2023-06-04T09:03:45;98770.78;;;28.02;35.31
10587;BME280;5341;47.606;7.576;2023-06-04T09:06:14;98771.78;;;28.12;35.40
10587;BME280;5341;47.606;7.576;2023-06-04T09:08:43;98766.41;;;28.20;34.91
10587;BME280;5341;47.606;7.576;2023-06-04T09:11:13;98771.28;;;28.28;35.02
10587;BME280;5341;47.606;7.576;2023-06-04T09:13:43;98771.63;;;28.41;34.70
10587;BME280;5341;47.606;7.576;2023-06-04T09:16:14;98764.91;;;28.47;34.54
10587;BME280;5341;47.606;7.576;2023-06-04T09:18:42;98757.63;;;28.56;34.31
10587;BME280;5341;47.606;7.576;2023-06-04T09:21:13;98763.19;;;28.70;34.42
10587;BME280;5341;47.606;7.576;2023-06-04T09:23:46;98761.81;;;28.86;34.30
10587;BME280;5341;47.606;7.576;2023-06-04T09:26:18;98758.81;;;29.01;33.56
10587;BME280;5341;47.606;7.576;2023-06-04T09:28:47;98759.53;;;29.07;33.36
10587;BME280;5341;47.606;7.576;2023-06-04T09:31:15;98750.38;;;29.11;33.22
10587;BME280;5341;47.606;7.576;2023-06-04T09:33:43;98747.75;;;29.20;33.25
10587;BME280;5341;47.606;7.576;2023-06-04T09:36:12;98746.31;;;29.23;33.34
10587;BME280;5341;47.606;7.576;2023-06-04T09:38:40;98744.16;;;29.33;33.29
10587;BME280;5341;47.606;7.576;2023-06-04T09:41:12;98746.09;;;29.46;33.07
10587;BME280;5341;47.606;7.576;2023-06-04T09:43:40;98746.75;;;29.57;33.42
10587;BME280;5341;47.606;7.576;2023-06-04T09:46:12;98750.94;;;29.68;33.29
10587;BME280;5341;47.606;7.576;2023-06-04T09:48:40;98741.59;;;29.78;33.41
10587;BME280;5341;47.606;7.576;2023-06-04T09:51:09;98742.38;;;29.92;33.14
10587;BME280;5341;47.606;7.576;2023-06-04T09:53:38;98740.75;;;30.05;32.56
10587;BME280;5341;47.606;7.576;2023-06-04T09:56:07;98740.34;;;30.12;33.00
10587;BME280;5341;47.606;7.576;2023-06-04T09:58:38;98737.84;;;30.24;32.43
10587;BME280;5341;47.606;7.576;2023-06-04T10:01:06;98740.38;;;30.34;32.41
10587;BME280;5341;47.606;7.576;2023-06-04T10:03:34;98738.59;;;30.38;32.42
10587;BME280;5341;47.606;7.576;2023-06-04T10:06:04;98741.44;;;30.47;31.75
10587;BME280;5341;47.606;7.576;2023-06-04T10:08:33;98738.84;;;30.50;32.19
10587;BME280;5341;47.606;7.576;2023-06-04T10:11:03;98733.91;;;30.61;32.49
10587;BME280;5341;47.606;7.576;2023-06-04T10:13:37;98737.97;;;30.77;32.04
10587;BME280;5341;47.606;7.576;2023-06-04T10:16:07;98736.53;;;30.88;31.92
10587;BME280;5341;47.606;7.576;2023-06-04T10:18:35;98740.47;;;30.96;31.78
10587;BME280;5341;47.606;7.576;2023-06-04T10:21:03;98745.25;;;31.04;30.66
10587;BME280;5341;47.606;7.576;2023-06-04T10:23:32;98746.56;;;31.07;30.80
10587;BME280;5341;47.606;7.576;2023-06-04T10:26:02;98731.28;;;31.09;30.80
10587;BME280;5341;47.606;7.576;2023-06-04T10:28:29;98731.66;;;31.16;30.98
10587;BME280;5341;47.606;7.576;2023-06-04T10:30:57;98733.00;;;31.19;31.18
10587;BME280;5341;47.606;7.576;2023-06-04T10:33:25;98727.19;;;31.29;30.85
10587;BME280;5341;47.606;7.576;2023-06-04T10:35:54;98733.56;;;31.38;30.09
10587;BME280;5341;47.606;7.576;2023-06-04T10:38:22;98731.63;;;31.47;30.27
10587;BME280;5341;47.606;7.576;2023-06-04T10:40:50;98733.59;;;31.56;30.00
10587;BME280;5341;47.606;7.576;2023-06-04T10:43:20;98730.19;;;31.59;30.70
10587;BME280;5341;47.606;7.576;2023-06-04T10:45:47;98736.41;;;31.73;29.53
10587;BME280;5341;47.606;7.576;2023-06-04T10:48:15;98735.50;;;31.77;29.17
10587;BME280;5341;47.606;7.576;2023-06-04T10:50:49;98728.66;;;31.75;29.09
10587;BME280;5341;47.606;7.576;2023-06-04T10:53:18;98725.19;;;31.69;28.77
10587;BME280;5341;47.606;7.576;2023-06-04T10:55:46;98733.31;;;31.66;29.77
10587;BME280;5341;47.606;7.576;2023-06-04T10:58:15;98729.56;;;31.70;30.18
10587;BME280;5341;47.606;7.576;2023-06-04T11:00:47;98726.69;;;31.84;29.53
10587;BME280;5341;47.606;7.576;2023-06-04T11:03:15;98721.50;;;31.91;29.89
10587;BME280;5341;47.606;7.576;2023-06-04T11:05:44;98720.03;;;31.94;30.37
10587;BME280;5341;47.606;7.576;2023-06-04T11:08:13;98715.34;;;32.12;29.66
10587;BME280;5341;47.606;7.576;2023-06-04T11:10:42;98710.47;;;32.17;30.29
10587;BME280;5341;47.606;7.576;2023-06-04T11:13:10;98721.69;;;32.21;30.30
10587;BME280;5341;47.606;7.576;2023-06-04T11:15:39;98725.16;;;32.35;29.58
10587;BME280;5341;47.606;7.576;2023-06-04T11:18:12;98726.13;;;32.48;29.22
10587;BME280;5341;47.606;7.576;2023-06-04T11:20:40;98710.47;;;32.52;29.49
10587;BME280;5341;47.606;7.576;2023-06-04T11:23:08;98713.22;;;32.60;28.90
10587;BME280;5341;47.606;7.576;2023-06-04T11:25:35;98711.56;;;32.77;28.20
10587;BME280;5341;47.606;7.576;2023-06-04T11:28:04;98712.53;;;32.89;28.31
10587;BME280;5341;47.606;7.576;2023-06-04T11:30:32;98710.06;;;32.97;28.50
10587;BME280;5341;47.606;7.576;2023-06-04T11:33:05;98704.78;;;33.12;27.52
10587;BME280;5341;47.606;7.576;2023-06-04T11:35:42;98710.00;;;33.14;27.39
10587;BME280;5341;47.606;7.576;2023-06-04T11:38:10;98708.50;;;33.16;27.63
10587;BME280;5341;47.606;7.576;2023-06-04T11:40:37;98704.09;;;33.24;27.40
10587;BME280;5341;47.606;7.576;2023-06-04T11:43:05;98699.34;;;33.25;27.33
10587;BME280;5341;47.606;7.576;2023-06-04T11:45:33;98702.25;;;33.28;27.63
10587;BME280;5341;47.606;7.576;2023-06-04T11:48:00;98696.25;;;33.35;27.49
10587;BME280;5341;47.606;7.576;2023-06-04T11:50:28;98690.31;;;33.45;26.89
10587;BME280;5341;47.606;7.576;2023-06-04T11:52:58;98691.13;;;33.45;27.11
10587;BME280;5341;47.606;7.576;2023-06-04T11:55:27;98685.41;;;33.42;28.13
10587;BME280;5341;47.606;7.576;2023-06-04T11:57:54;98697.75;;;33.53;27.58
10587;BME280;5341;47.606;7.576;2023-06-04T12:00:22;98693.78;;;33.63;27.29
10587;BME280;5341;47.606;7.576;2023-06-04T12:02:51;98696.97;;;33.73;26.65
10587;BME280;5341;47.606;7.576;2023-06-04T12:05:20;98688.09;;;33.80;27.04
10587;BME280;5341;47.606;7.576;2023-06-04T12:07:50;98690.69;;;33.85;26.30
10587;BME280;5341;47.606;7.576;2023-06-04T12:10:20;98690.84;;;33.89;26.59
10587;BME280;5341;47.606;7.576;2023-06-04T12:12:54;98681.03;;;33.91;26.19
10587;BME280;5341;47.606;7.576;2023-06-04T12:15:22;98684.50;;;33.88;27.22
10587;BME280;5341;47.606;7.576;2023-06-04T12:17:50;98686.28;;;33.93;26.91
10587;BME280;5341;47.606;7.576;2023-06-04T12:20:18;98687.97;;;34.06;26.75
10587;BME280;5341;47.606;7.576;2023-06-04T12:22:46;98694.81;;;34.08;27.21
10587;BME280;5341;47.606;7.576;2023-06-04T12:25:25;98681.72;;;34.09;26.95
10587;BME280;5341;47.606;7.576;2023-06-04T12:27:53;98681.56;;;34.26;26.62
10587;BME280;5341;47.606;7.576;2023-06-04T12:30:22;98678.53;;;34.40;25.87
10587;BME280;5341;47.606;7.576;2023-06-04T12:32:49;98670.22;;;34.52;25.96
10587;BME280;5341;47.606;7.576;2023-06-04T12:35:19;98671.53;;;34.55;25.61
10587;BME280;5341;47.606;7.576;2023-06-04T12:37:46;98667.69;;;34.47;26.26
10587;BME280;5341;47.606;7.576;2023-06-04T12:40:14;98669.19;;;34.45;26.49
10587;BME280;5341;47.606;7.576;2023-06-04T12:42:43;98666.78;;;34.55;25.63
10587;BME280;5341;47.606;7.576;2023-06-04T12:45:12;98668.28;;;34.53;25.59
10587;BME280;5341;47.606;7.576;2023-06-04T12:47:40;98671.38;;;34.51;26.28
10587;BME280;5341;47.606;7.576;2023-06-04T12:50:09;98669.22;;;34.57;26.45
10587;BME280;5341;47.606;7.576;2023-06-04T12:52:37;98670.59;;;34.63;25.71
10587;BME280;5341;47.606;7.576;2023-06-04T12:55:05;98661.63;;;34.66;25.06
10587;BME280;5341;47.606;7.576;2023-06-04T12:57:33;98657.06;;;34.61;25.59
10587;BME280;5341;47.606;7.576;2023-06-04T13:00:02;98660.66;;;34.62;25.75
10587;BME280;5341;47.606;7.576;2023-06-04T13:02:30;98662.88;;;34.69;25.06
10587;BME280;5341;47.606;7.576;2023-06-04T13:04:58;98662.31;;;34.75;24.69
10587;BME280;5341;47.606;7.576;2023-06-04T13:07:25;98665.06;;;34.75;25.28
10587;BME280;5341;47.606;7.576;2023-06-04T13:09:53;98662.44;;;34.79;25.28
10587;BME280;5341;47.606;7.576;2023-06-04T13:12:20;98663.72;;;34.81;25.69
10587;BME280;5341;47.606;7.576;2023-06-04T13:14:47;98656.94;;;34.91;24.81
10587;BME280;5341;47.606;7.576;2023-06-04T13:17:17;98651.94;;;34.97;24.71
10587;BME280;5341;47.606;7.576;2023-06-04T13:19:44;98663.06;;;34.97;25.00